Time;durP1;ratioP1;P1;durP2;ratioP2;P2;SDS_P1;SDS_P2;PMS_P1;PMS_P2;Temp;Humidity;BMP_temperature;BMP_pressure;BME280_temperature;BME280_humidity;BME280_pressure;Samples;Min_cycle;Max_cycle;Signal;HPM_P1;HPM_P2
2023/08/25 00:00:45;;;;;;;36.40;29.50;;;20.00;99.90;;;;;;5087591;28;20053;-76
2023/08/25 00:03:11;;;;;;;34.42;28.08;;;20.00;99.90;;;;;;5077200;28;20085;-76
2023/08/25 00:05:37;;;;;;;34.25;27.35;;;20.00;99.90;;;;;;5086644;28;20040;-75
2023/08/25 00:08:03;;;;;;;37.00;30.10;;;20.00;99.90;;;;;;5076973;28;20051;-75
2023/08/25 00:10:29;;;;;;;36.38;31.30;;;20.00;99.90;;;;;;5085155;28;20040;-76
2023/08/25 00:12:55;;;;;;;39.58;30.08;;;19.90;99.90;;;;;;5100946;28;20508;-76
2023/08/25 00:15:21;;;;;;;34.22;28.60;;;19.90;99.90;;;;;;5100934;28;20039;-75
2023/08/25 00:17:46;;;;;;;41.97;33.03;;;19.90;99.90;;;;;;5085325;28;20047;-75
2023/08/25 00:20:12;;;;;;;40.83;32.42;;;19.90;99.90;;;;;;5072236;28;20044;-75
2023/08/25 00:22:41;;;;;;;41.80;33.83;;;19.90;99.90;;;;;;5078348;28;20048;-75
2023/08/25 00:25:08;;;;;;;37.58;33.45;;;19.80;99.90;;;;;;5075403;28;20041;-76
2023/08/25 00:27:33;;;;;;;38.65;31.65;;;19.80;99.90;;;;;;5081762;28;20083;-76
2023/08/25 00:29:59;;;;;;;37.13;32.40;;;19.80;99.90;;;;;;5077824;28;20051;-76
2023/08/25 00:32:25;;;;;;;42.70;35.42;;;19.80;99.90;;;;;;5083590;28;20059;-76
2023/08/25 00:34:51;;;;;;;39.53;32.40;;;19.80;99.90;;;;;;5100931;28;20036;-76
2023/08/25 00:37:16;;;;;;;45.65;37.40;;;19.70;99.90;;;;;;5077708;28;20051;-76
2023/08/25 00:39:42;;;;;;;41.20;36.50;;;19.70;99.90;;;;;;5081302;28;20141;-76
2023/08/25 00:42:08;;;;;;;41.22;33.63;;;19.70;99.90;;;;;;5088226;28;20039;-76
2023/08/25 00:44:35;;;;;;;37.80;33.55;;;19.70;99.90;;;;;;5092742;28;20040;-76
2023/08/25 00:47:00;;;;;;;42.55;34.05;;;19.70;99.90;;;;;;5085660;28;20065;-76
2023/08/25 00:49:27;;;;;;;44.03;34.90;;;19.70;99.90;;;;;;5089093;28;20036;-76
2023/08/25 00:51:54;;;;;;;41.67;34.63;;;19.70;99.90;;;;;;5090523;28;20063;-76
2023/08/25 00:54:23;;;;;;;43.60;37.00;;;19.70;99.90;;;;;;5079741;28;20055;-76
2023/08/25 00:56:50;;;;;;;40.92;34.15;;;19.80;99.90;;;;;;5090404;28;20047;-77
2023/08/25 00:59:17;;;;;;;47.47;38.53;;;19.70;99.90;;;;;;5085322;28;20089;-74
2023/08/25 01:01:44;;;;;;;45.03;37.13;;;19.70;99.90;;;;;;5085037;28;20060;-74
2023/08/25 01:04:10;;;;;;;44.17;35.38;;;19.70;99.90;;;;;;5081897;28;20045;-75
2023/08/25 01:06:37;;;;;;;46.97;37.65;;;19.80;99.90;;;;;;5086607;28;20455;-75
2023/08/25 01:09:04;;;;;;;42.27;35.37;;;19.70;99.90;;;;;;5082512;28;20040;-76
2023/08/25 01:11:55;;;;;;;40.10;34.03;;;19.80;99.90;;;;;;5094354;28;20048;-76
2023/08/25 01:14:30;;;;;;;40.17;35.53;;;19.80;99.90;;;;;;5089771;28;20032;-76
2023/08/25 01:17:08;;;;;;;40.63;34.63;;;19.80;99.90;;;;;;5088636;28;20042;-76
2023/08/25 01:19:58;;;;;;;44.33;35.20;;;19.80;99.90;;;;;;5080331;28;20091;-76
2023/08/25 01:22:36;;;;;;;42.40;34.17;;;19.80;99.90;;;;;;5082503;28;20078;-76
2023/08/25 01:25:22;;;;;;;49.75;37.95;;;19.90;99.90;;;;;;5091621;28;20044;-76
2023/08/25 01:27:52;;;;;;;41.67;35.30;;;19.80;99.90;;;;;;5077848;28;20560;-76
2023/08/25 01:30:35;;;;;;;42.97;36.25;;;19.80;99.90;;;;;;5090246;28;20060;-76
2023/08/25 01:33:05;;;;;;;46.20;36.45;;;19.80;99.90;;;;;;5095543;28;20097;-76
2023/08/25 01:35:52;;;;;;;41.75;36.40;;;19.80;99.90;;;;;;5083905;28;20040;-76
2023/08/25 01:38:50;;;;;;;46.03;36.47;;;19.90;99.90;;;;;;5083268;28;20478;-76
2023/08/25 01:41:16;;;;;;;43.67;34.92;;;19.80;99.90;;;;;;5090851;28;20510;-76
2023/08/25 01:43:46;;;;;;;44.50;36.67;;;19.80;99.90;;;;;;5083012;28;20510;-76
2023/08/25 01:46:15;;;;;;;48.67;36.58;;;19.80;99.90;;;;;;5080135;28;20048;-77
2023/08/25 01:48:44;;;;;;;43.08;35.38;;;19.80;99.90;;;;;;5087864;28;20067;-77
2023/08/25 01:51:11;;;;;;;43.97;36.25;;;19.80;99.90;;;;;;5083545;28;20064;-77
2023/08/25 01:53:37;;;;;;;46.30;37.15;;;19.80;99.90;;;;;;5082271;28;20048;-75
2023/08/25 01:56:03;;;;;;;44.97;35.22;;;19.80;99.90;;;;;;5077806;28;20082;-76
2023/08/25 01:58:29;;;;;;;46.65;36.00;;;19.80;99.90;;;;;;5093418;28;20390;-76
2023/08/25 02:00:54;;;;;;;48.00;36.60;;;19.80;99.90;;;;;;5085021;28;20043;-77
2023/08/25 02:03:20;;;;;;;44.97;37.63;;;19.70;99.90;;;;;;5085591;28;20053;-76
2023/08/25 02:05:45;;;;;;;43.78;35.22;;;19.70;99.90;;;;;;5069103;28;20615;-76
2023/08/25 02:08:11;;;;;;;47.58;34.92;;;19.70;99.90;;;;;;5087290;28;20082;-76
2023/08/25 02:10:37;;;;;;;45.03;33.38;;;19.60;99.90;;;;;;5079188;28;20037;-76
2023/08/25 02:13:02;;;;;;;51.20;37.55;;;19.60;99.90;;;;;;5088409;28;20040;-77
2023/08/25 02:15:28;;;;;;;51.95;38.65;;;19.60;99.90;;;;;;5085659;28;20045;-77
2023/08/25 02:17:54;;;;;;;48.13;35.67;;;19.50;99.90;;;;;;5090014;28;20485;-77
2023/08/25 02:20:19;;;;;;;49.20;36.78;;;19.50;99.90;;;;;;5094532;28;20071;-76
2023/08/25 02:22:45;;;;;;;52.58;38.88;;;19.50;99.90;;;;;;5078032;28;20068;-77
2023/08/25 02:25:10;;;;;;;47.10;36.35;;;19.50;99.90;;;;;;5094659;28;20036;-76
2023/08/25 02:27:36;;;;;;;52.25;37.55;;;19.50;99.90;;;;;;5089526;28;20419;-75
2023/08/25 02:30:03;;;;;;;52.60;38.05;;;19.50;99.90;;;;;;5088098;28;20039;-76
2023/08/25 02:32:28;;;;;;;47.53;36.55;;;19.40;99.90;;;;;;5093663;28;20055;-76
2023/08/25 02:34:54;;;;;;;45.55;35.28;;;19.40;99.90;;;;;;5089929;28;20036;-76
2023/08/25 02:37:20;;;;;;;43.45;34.50;;;19.40;99.90;;;;;;5088977;28;20040;-77
2023/08/25 02:39:45;;;;;;;50.05;35.67;;;19.40;99.90;;;;;;5074850;28;20040;-76
2023/08/25 02:42:12;;;;;;;50.47;36.78;;;19.40;99.90;;;;;;5091976;28;20063;-77
2023/08/25 02:44:38;;;;;;;50.38;38.15;;;19.40;99.90;;;;;;5092174;28;20389;-77
2023/08/25 02:47:04;;;;;;;52.03;37.28;;;19.30;99.90;;;;;;5085471;28;20066;-77
2023/08/25 02:49:29;;;;;;;54.20;38.90;;;19.40;99.90;;;;;;5088893;28;20036;-77
2023/08/25 02:51:56;;;;;;;50.58;37.90;;;19.40;99.90;;;;;;5072044;28;20056;-76
2023/08/25 02:54:23;;;;;;;59.50;39.13;;;19.40;99.90;;;;;;5081779;28;20051;-76
2023/08/25 02:56:49;;;;;;;50.65;37.30;;;19.40;99.90;;;;;;5083862;28;20143;-76
2023/08/25 02:59:14;;;;;;;55.40;37.78;;;19.40;99.90;;;;;;5089844;28;20040;-77
2023/08/25 03:01:40;;;;;;;51.60;37.97;;;19.50;99.90;;;;;;5088610;28;20043;-76
2023/08/25 03:04:06;;;;;;;51.92;38.78;;;19.50;99.90;;;;;;5087872;28;20032;-76
2023/08/25 03:06:32;;;;;;;52.28;39.53;;;19.50;99.90;;;;;;5088906;28;20124;-76
2023/08/25 03:08:57;;;;;;;51.28;38.97;;;19.50;99.90;;;;;;5081348;28;20075;-76
2023/08/25 03:11:23;;;;;;;55.33;39.30;;;19.40;99.90;;;;;;5091680;28;20040;-76
2023/08/25 03:13:49;;;;;;;48.55;36.60;;;19.50;99.90;;;;;;5091633;28;20068;-75
2023/08/25 03:16:15;;;;;;;50.25;37.50;;;19.50;99.90;;;;;;5082866;28;20127;-75
2023/08/25 03:18:40;;;;;;;48.90;36.83;;;19.50;99.90;;;;;;5064470;28;20120;-76
2023/08/25 03:21:06;;;;;;;51.20;39.00;;;19.50;99.90;;;;;;5085488;28;20052;-75
2023/08/25 03:23:32;;;;;;;51.55;38.90;;;19.50;99.90;;;;;;5079006;28;20044;-75
2023/08/25 03:26:01;;;;;;;53.10;39.95;;;19.50;99.90;;;;;;5080925;28;20044;-76
2023/08/25 03:28:27;;;;;;;52.55;40.25;;;19.50;99.90;;;;;;5083861;28;20042;-76
2023/08/25 03:30:53;;;;;;;48.60;37.90;;;19.50;99.90;;;;;;5078380;28;20048;-76
2023/08/25 03:33:19;;;;;;;49.65;36.75;;;19.50;99.90;;;;;;5081322;28;20032;-75
2023/08/25 03:35:44;;;;;;;49.47;35.97;;;19.50;99.90;;;;;;5093131;28;20036;-76
2023/08/25 03:38:10;;;;;;;52.72;39.63;;;19.50;99.90;;;;;;5093392;28;20043;-76
2023/08/25 03:40:36;;;;;;;50.38;38.42;;;19.50;99.90;;;;;;5089038;28;20044;-76
2023/08/25 03:43:01;;;;;;;53.45;37.15;;;19.50;99.90;;;;;;5081763;28;20089;-75
2023/08/25 03:45:27;;;;;;;46.42;36.17;;;19.50;99.90;;;;;;5088837;28;20410;-76
2023/08/25 03:47:53;;;;;;;50.55;39.05;;;19.50;99.90;;;;;;5062362;28;20043;-76
2023/08/25 03:50:22;;;;;;;54.40;40.65;;;19.50;99.90;;;;;;5074096;28;20375;-76
2023/08/25 03:52:49;;;;;;;46.97;38.15;;;19.50;99.90;;;;;;5089445;28;20047;-76
2023/08/25 03:55:15;;;;;;;54.55;40.33;;;19.50;99.90;;;;;;5074739;28;20052;-76
2023/08/25 03:57:41;;;;;;;53.13;39.40;;;19.50;99.90;;;;;;5077263;28;20040;-76
2023/08/25 04:00:07;;;;;;;52.13;38.92;;;19.50;99.90;;;;;;5075777;28;20032;-76
2023/08/25 04:02:33;;;;;;;50.22;38.53;;;19.40;99.90;;;;;;5078063;28;20107;-76
2023/08/25 04:04:59;;;;;;;55.78;41.70;;;19.50;99.90;;;;;;5098485;28;20367;-76
2023/08/25 04:07:24;;;;;;;54.03;40.03;;;19.40;99.90;;;;;;5089372;28;20422;-76
2023/08/25 04:09:53;;;;;;;60.25;39.92;;;19.50;99.90;;;;;;5078431;28;20048;-76
2023/08/25 04:12:19;;;;;;;56.17;41.03;;;19.50;99.90;;;;;;5084912;28;20040;-77
2023/08/25 04:14:46;;;;;;;58.60;39.88;;;19.40;99.90;;;;;;5104608;28;20466;-76
2023/08/25 04:17:11;;;;;;;52.47;40.17;;;19.40;99.90;;;;;;5083800;28;20047;-76
2023/08/25 04:19:37;;;;;;;59.50;39.80;;;19.40;99.90;;;;;;5082624;28;20053;-77
2023/08/25 04:22:03;;;;;;;62.00;42.78;;;19.40;99.90;;;;;;5100502;28;20723;-77
2023/08/25 04:24:29;;;;;;;63.90;43.70;;;19.40;99.90;;;;;;5082872;28;20040;-77
2023/08/25 04:26:54;;;;;;;57.00;41.53;;;19.40;99.90;;;;;;5068074;28;20059;-76
2023/08/25 04:29:20;;;;;;;55.47;40.42;;;19.40;99.90;;;;;;5085589;28;20040;-77
2023/08/25 04:31:46;;;;;;;58.63;41.30;;;19.40;99.90;;;;;;5095483;28;20032;-76
2023/08/25 04:34:11;;;;;;;57.60;41.80;;;19.40;99.90;;;;;;5086373;28;20467;-76
2023/08/25 04:36:39;;;;;;;58.83;40.83;;;19.40;99.90;;;;;;5084830;28;20043;-76
2023/08/25 04:39:05;;;;;;;62.55;41.38;;;19.30;99.90;;;;;;5089625;28;20119;-76
2023/08/25 04:41:31;;;;;;;53.78;39.88;;;19.40;99.90;;;;;;5082267;28;20136;-76
2023/08/25 04:43:56;;;;;;;59.92;41.42;;;19.30;99.90;;;;;;5089723;28;20043;-76
2023/08/25 04:46:22;;;;;;;56.20;38.95;;;19.40;99.90;;;;;;5085196;28;20039;-76
2023/08/25 04:48:48;;;;;;;63.42;41.90;;;19.40;99.90;;;;;;5089410;28;20044;-76
2023/08/25 04:51:14;;;;;;;63.22;40.50;;;19.40;99.90;;;;;;5115365;27;20046;-76
2023/08/25 04:53:40;;;;;;;60.10;41.75;;;19.40;99.90;;;;;;5084802;28;20079;-76
2023/08/25 04:56:05;;;;;;;59.90;40.75;;;19.40;99.90;;;;;;5081877;28;20433;-76
2023/08/25 04:58:31;;;;;;;63.22;41.45;;;19.40;99.90;;;;;;5079107;28;20036;-76
2023/08/25 05:00:57;;;;;;;58.70;41.33;;;19.40;99.90;;;;;;5076322;28;20037;-76
2023/08/25 05:03:23;;;;;;;63.33;41.60;;;19.40;99.90;;;;;;5081227;28;20043;-77
2023/08/25 05:05:48;;;;;;;63.05;42.50;;;19.40;99.90;;;;;;5084172;28;20473;-76
2023/08/25 05:08:14;;;;;;;60.20;41.05;;;19.40;99.90;;;;;;5080188;28;20058;-76
2023/08/25 05:10:40;;;;;;;63.35;41.70;;;19.50;99.90;;;;;;5079886;28;20044;-76
2023/08/25 05:13:06;;;;;;;56.67;39.33;;;19.50;99.90;;;;;;5082986;28;20043;-76
2023/08/25 05:15:33;;;;;;;64.13;43.30;;;19.40;99.90;;;;;;5081870;28;20093;-77
2023/08/25 05:17:58;;;;;;;67.10;41.07;;;19.50;99.90;;;;;;5087154;28;20036;-77
2023/08/25 05:20:24;;;;;;;65.25;41.40;;;19.50;99.90;;;;;;5085101;28;20379;-77
2023/08/25 05:22:50;;;;;;;58.10;41.83;;;19.40;99.90;;;;;;5088856;28;20094;-76
2023/08/25 05:25:18;;;;;;;62.15;41.85;;;19.50;99.90;;;;;;5076812;28;20051;-77
2023/08/25 05:27:44;;;;;;;;;;;19.50;99.90;;;;;;5086177;28;20055;-76
2023/08/25 05:30:10;;;;;;;61.03;40.92;;;19.50;99.90;;;;;;5081024;28;19920;-76
2023/08/25 05:32:35;;;;;;;70.68;42.63;;;19.50;99.90;;;;;;5077056;28;20037;-76
2023/08/25 05:35:01;;;;;;;65.75;42.40;;;19.50;99.90;;;;;;5090086;28;20398;-77
2023/08/25 05:37:27;;;;;;;60.80;40.17;;;19.50;99.90;;;;;;5078795;28;20037;-77
2023/08/25 05:39:53;;;;;;;66.07;41.75;;;19.60;99.90;;;;;;5093987;28;20216;-77
2023/08/25 05:42:18;;;;;;;54.20;37.67;;;19.60;99.90;;;;;;5065408;28;20039;-77
2023/08/25 05:44:44;;;;;;;63.22;41.60;;;19.60;99.90;;;;;;5081066;28;20382;-75
2023/08/25 05:47:10;;;;;;;57.58;39.58;;;19.60;99.90;;;;;;5088928;28;20036;-75
2023/08/25 05:49:35;;;;;;;63.33;40.92;;;19.60;99.90;;;;;;5091476;28;20048;-76
2023/08/25 05:52:01;;;;;;;62.22;42.45;;;19.60;99.90;;;;;;5079648;28;20593;-76
2023/08/25 05:54:27;;;;;;;65.05;41.53;;;19.60;99.90;;;;;;5078824;28;20036;-76
2023/08/25 05:56:56;;;;;;;69.50;42.72;;;19.70;99.90;;;;;;5078897;28;20040;-76
2023/08/25 05:59:21;;;;;;;70.45;41.67;;;19.70;99.90;;;;;;5088881;28;20040;-77
2023/08/25 06:01:47;;;;;;;71.00;42.05;;;19.70;99.90;;;;;;5088383;28;20062;-77
2023/08/25 06:04:13;;;;;;;64.75;41.28;;;19.70;99.90;;;;;;5094202;28;20152;-75
2023/08/25 06:06:38;;;;;;;68.50;41.42;;;19.70;99.90;;;;;;5103221;28;20040;-77
2023/08/25 06:09:05;;;;;;;66.15;41.85;;;19.70;99.90;;;;;;5085506;28;20093;-77
2023/08/25 06:11:31;;;;;;;64.57;41.47;;;19.70;99.90;;;;;;5121488;27;20059;-77
2023/08/25 06:13:56;;;;;;;65.20;43.58;;;19.70;99.90;;;;;;5091954;28;20040;-77
2023/08/25 06:16:23;;;;;;;69.85;44.53;;;19.70;99.90;;;;;;5081175;28;20086;-76
2023/08/25 06:18:48;;;;;;;65.63;42.83;;;19.80;99.90;;;;;;5073614;28;20047;-76
2023/08/25 06:21:14;;;;;;;63.75;42.03;;;19.70;99.90;;;;;;5087620;28;20101;-76
2023/08/25 06:23:39;;;;;;;66.20;43.20;;;19.70;99.90;;;;;;5093648;28;20046;-76
2023/08/25 06:26:06;;;;;;;65.95;42.95;;;19.80;99.90;;;;;;5088070;28;20138;-77
2023/08/25 06:28:33;;;;;;;69.18;43.85;;;19.80;99.90;;;;;;5089070;28;20036;-77
2023/08/25 06:30:59;;;;;;;66.35;44.45;;;19.80;99.90;;;;;;5081942;28;20470;-77
2023/08/25 06:33:29;;;;;;;75.85;45.58;;;19.80;99.90;;;;;;5088875;28;20052;-77
2023/08/25 06:35:56;;;;;;;79.00;47.42;;;19.80;99.90;;;;;;5082976;28;20418;-78
2023/08/25 06:38:23;;;;;;;79.35;46.75;;;19.80;99.90;;;;;;5047024;28;20040;-77
2023/08/25 06:40:49;;;;;;;79.30;48.08;;;19.80;99.90;;;;;;5084491;28;20028;-77
2023/08/25 06:43:15;;;;;;;78.93;46.47;;;19.80;99.90;;;;;;5086867;28;20044;-77
2023/08/25 06:45:40;;;;;;;83.20;47.53;;;19.80;99.90;;;;;;5082641;28;20049;-77
2023/08/25 06:48:06;;;;;;;75.63;46.13;;;19.80;99.90;;;;;;5069011;28;20036;-75
2023/08/25 06:50:32;;;;;;;75.18;47.85;;;19.90;99.90;;;;;;5080020;28;20037;-76
2023/08/25 06:52:57;;;;;;;78.53;47.20;;;19.90;99.90;;;;;;5092881;28;20044;-77
2023/08/25 06:55:25;;;;;;;78.35;48.15;;;19.80;99.90;;;;;;5089904;28;20493;-76
2023/08/25 06:57:51;;;;;;;79.45;46.42;;;19.90;99.90;;;;;;5084511;28;20526;-76
2023/08/25 07:00:17;;;;;;;71.80;42.03;;;20.00;99.90;;;;;;5056162;28;20167;-75
2023/08/25 07:02:44;;;;;;;73.93;41.10;;;20.00;99.90;;;;;;5072953;28;20119;-74
2023/08/25 07:05:13;;;;;;;70.90;44.00;;;20.00;99.90;;;;;;5085713;28;20070;-75
2023/08/25 07:07:38;;;;;;;60.58;41.58;;;20.00;99.90;;;;;;5086591;28;20040;-76
2023/08/25 07:10:05;;;;;;;70.00;43.83;;;19.90;99.90;;;;;;5076604;28;20035;-76
2023/08/25 07:12:31;;;;;;;73.35;43.97;;;19.90;99.90;;;;;;5090827;28;20555;-76
2023/08/25 07:14:56;;;;;;;76.60;45.08;;;19.90;99.90;;;;;;5074611;28;20040;-76
2023/08/25 07:17:22;;;;;;;67.18;42.17;;;19.90;99.90;;;;;;5090276;28;20478;-76
2023/08/25 07:19:48;;;;;;;68.68;41.72;;;19.90;99.90;;;;;;5103975;28;20062;-76
2023/08/25 07:22:14;;;;;;;65.35;41.15;;;20.00;99.90;;;;;;5087270;28;20036;-76
2023/08/25 07:24:39;;;;;;;68.93;43.03;;;20.10;99.90;;;;;;5092482;28;20445;-76
2023/08/25 07:27:05;;;;;;;65.00;41.00;;;20.10;99.90;;;;;;5088184;28;20115;-76
2023/08/25 07:29:34;;;;;;;68.07;42.47;;;20.10;99.90;;;;;;5081697;28;20045;-76
2023/08/25 07:32:00;;;;;;;63.60;40.45;;;20.20;99.90;;;;;;5070709;28;20498;-76
2023/08/25 07:34:25;;;;;;;59.53;40.20;;;20.30;99.90;;;;;;5079989;28;20051;-76
2023/08/25 07:36:53;;;;;;;56.30;38.20;;;20.30;99.90;;;;;;5082836;28;20040;-76
2023/08/25 07:39:19;;;;;;;64.93;39.72;;;20.30;99.90;;;;;;5087725;28;20044;-76
2023/08/25 07:41:44;;;;;;;57.15;37.67;;;20.40;99.90;;;;;;5089588;28;20043;-77
2023/08/25 07:44:13;;;;;;;55.03;36.70;;;20.40;99.90;;;;;;5090142;28;20081;-75
2023/08/25 07:46:39;;;;;;;54.60;37.08;;;20.50;99.90;;;;;;5095155;28;20032;-75
2023/08/25 07:49:08;;;;;;;66.40;38.90;;;20.50;99.90;;;;;;5089243;28;20043;-76
2023/08/25 07:51:37;;;;;;;64.88;39.72;;;20.50;99.90;;;;;;5091812;28;20390;-75
2023/08/25 07:54:02;;;;;;;63.08;38.38;;;20.50;99.90;;;;;;5086652;28;20075;-75
2023/08/25 07:56:28;;;;;;;59.53;40.05;;;20.50;99.90;;;;;;5072644;28;20482;-76
2023/08/25 07:58:54;;;;;;;59.28;37.72;;;20.40;99.90;;;;;;5080846;28;20047;-76
2023/08/25 08:01:20;;;;;;;54.15;36.63;;;20.40;99.90;;;;;;5079032;28;20036;-76
2023/08/25 08:03:47;;;;;;;57.50;37.22;;;20.40;99.90;;;;;;5084493;28;20060;-76
2023/08/25 08:06:13;;;;;;;58.00;37.20;;;20.40;99.90;;;;;;5083748;28;20100;-76
2023/08/25 08:08:39;;;;;;;66.53;38.53;;;20.40;99.90;;;;;;5084296;28;20040;-77
2023/08/25 08:11:05;;;;;;;55.67;38.10;;;20.40;99.90;;;;;;5089545;28;20071;-76
2023/08/25 08:13:30;;;;;;;57.33;34.30;;;20.50;99.90;;;;;;5073566;28;20123;-76
2023/08/25 08:15:56;;;;;;;48.78;34.10;;;20.50;99.90;;;;;;5083201;28;20130;-76
2023/08/25 08:18:22;;;;;;;53.33;35.40;;;20.50;99.90;;;;;;5072031;28;20170;-76
2023/08/25 08:20:48;;;;;;;54.65;36.00;;;20.50;99.90;;;;;;5089338;28;20139;-76
2023/08/25 08:23:15;;;;;;;47.10;32.30;;;20.40;99.90;;;;;;5081982;28;20059;-76
2023/08/25 08:25:41;;;;;;;54.50;36.25;;;20.50;99.90;;;;;;5085210;28;20505;-76
2023/08/25 08:28:08;;;;;;;48.78;34.20;;;20.40;99.90;;;;;;5080782;28;20506;-76
2023/08/25 08:30:34;;;;;;;52.75;33.00;;;20.50;99.90;;;;;;5083795;28;20051;-76
2023/08/25 08:33:00;;;;;;;48.15;28.95;;;20.40;99.90;;;;;;5082697;28;20063;-76
2023/08/25 08:35:26;;;;;;;44.30;30.05;;;20.40;99.90;;;;;;5086524;28;20048;-76
2023/08/25 08:37:52;;;;;;;48.22;27.40;;;20.40;99.90;;;;;;5074048;28;20033;-76
2023/08/25 08:40:20;;;;;;;40.90;25.17;;;20.40;99.90;;;;;;5089622;28;20044;-77
2023/08/25 08:42:49;;;;;;;36.78;22.08;;;20.40;99.90;;;;;;5085654;28;20066;-78
2023/08/25 08:45:17;;;;;;;34.50;21.38;;;20.60;99.90;;;;;;5087374;28;20047;-80
2023/08/25 08:47:45;;;;;;;34.95;22.63;;;20.70;99.90;;;;;;5093628;28;20043;-77
2023/08/25 08:50:11;;;;;;;33.50;22.70;;;20.80;99.90;;;;;;5113126;28;20044;-77
2023/08/25 08:52:37;;;;;;;35.78;22.55;;;20.80;99.90;;;;;;5083218;28;20126;-78
2023/08/25 08:55:09;;;;;;;33.65;22.50;;;20.80;99.90;;;;;;5080221;28;20523;-78
2023/08/25 08:57:35;;;;;;;32.70;22.95;;;21.00;99.90;;;;;;5086518;28;20542;-78
2023/08/25 09:00:04;;;;;;;35.25;23.77;;;21.10;99.90;;;;;;5091942;28;20039;-78
2023/08/25 09:02:32;;;;;;;32.10;21.55;;;21.10;99.90;;;;;;5090557;28;20100;-75
2023/08/25 09:04:59;;;;;;;38.22;22.52;;;21.10;99.90;;;;;;5089264;28;20064;-77
2023/08/25 09:07:31;;;;;;;36.03;24.02;;;21.20;99.90;;;;;;5088806;28;20089;-75
2023/08/25 09:09:58;;;;;;;36.42;24.15;;;21.20;99.90;;;;;;5091280;28;20040;-76
2023/08/25 09:12:24;;;;;;;32.30;23.45;;;21.10;99.90;;;;;;5082550;28;20040;-76
2023/08/25 09:14:51;;;;;;;33.55;22.80;;;21.10;99.90;;;;;;5085706;28;20047;-76
2023/08/25 09:17:19;;;;;;;39.70;23.73;;;21.10;99.90;;;;;;5084631;28;20052;-76
2023/08/25 09:19:45;;;;;;;37.38;24.40;;;21.20;99.90;;;;;;5090532;28;20056;-76
2023/08/25 09:22:13;;;;;;;41.08;23.55;;;21.20;99.90;;;;;;5090202;28;20128;-75
2023/08/25 09:24:42;;;;;;;31.83;22.77;;;21.20;99.90;;;;;;5093172;28;20470;-76
2023/08/25 09:27:24;;;;;;;41.63;25.48;;;21.20;99.90;;;;;;5090764;28;20043;-76
2023/08/25 09:30:03;;;;;;;32.08;23.23;;;21.10;99.90;;;;;;5089388;28;20032;-77
2023/08/25 09:32:29;;;;;;;40.05;23.88;;;21.10;99.90;;;;;;5094077;28;20091;-76
2023/08/25 09:34:55;;;;;;;34.20;22.77;;;21.00;99.90;;;;;;5092244;28;20036;-76
2023/08/25 09:37:21;;;;;;;35.03;24.83;;;21.00;99.90;;;;;;5084870;28;20045;-77
2023/08/25 09:39:47;;;;;;;35.33;24.20;;;21.00;99.90;;;;;;5090441;28;20547;-76
2023/08/25 09:42:12;;;;;;;32.22;23.15;;;21.00;99.90;;;;;;5084430;28;20040;-76
2023/08/25 09:44:39;;;;;;;34.60;23.73;;;21.20;99.90;;;;;;5081533;28;20037;-77
2023/08/25 09:47:08;;;;;;;37.78;24.05;;;21.30;99.90;;;;;;5090354;28;20036;-76
2023/08/25 09:49:42;;;;;;;39.35;23.98;;;21.40;99.90;;;;;;5089878;28;20048;-76
2023/08/25 09:52:14;;;;;;;34.25;23.20;;;21.50;99.90;;;;;;5087284;28;20043;-77
2023/08/25 09:54:43;;;;;;;34.22;22.98;;;21.60;99.90;;;;;;5089492;28;20046;-77
2023/08/25 09:57:09;;;;;;;37.83;25.05;;;21.70;99.90;;;;;;5083874;28;20032;-77
2023/08/25 09:59:35;;;;;;;39.22;24.65;;;21.70;99.90;;;;;;5089820;28;20048;-76
2023/08/25 10:02:01;;;;;;;35.65;24.23;;;21.70;99.90;;;;;;5086796;28;20137;-78
2023/08/25 10:04:27;;;;;;;33.38;23.63;;;21.70;99.90;;;;;;5086653;28;20045;-77
2023/08/25 10:06:54;;;;;;;37.92;25.08;;;21.80;99.90;;;;;;5076941;28;20052;-76
2023/08/25 10:09:24;;;;;;;34.95;23.40;;;21.80;99.90;;;;;;5094992;28;20124;-77
2023/08/25 10:11:52;;;;;;;34.40;23.88;;;21.70;99.90;;;;;;5079714;28;20114;-77
2023/08/25 10:14:26;;;;;;;33.60;23.92;;;21.60;99.90;;;;;;5084183;28;20083;-75
2023/08/25 10:16:53;;;;;;;36.08;25.85;;;21.60;99.90;;;;;;5075198;28;20036;-77
2023/08/25 10:19:27;;;;;;;34.55;25.00;;;21.50;99.90;;;;;;5074272;28;20047;-76
2023/08/25 10:21:55;;;;;;;34.78;24.50;;;21.50;99.90;;;;;;5109836;27;20040;-76
2023/08/25 10:24:23;;;;;;;36.53;25.35;;;21.40;99.90;;;;;;5083976;28;20040;-76
2023/08/25 10:26:50;;;;;;;34.53;24.38;;;21.30;99.90;;;;;;5111386;27;20040;-76
2023/08/25 10:29:21;;;;;;;35.00;25.10;;;21.30;99.90;;;;;;5091650;28;20493;-76
2023/08/25 10:32:04;;;;;;;36.55;26.55;;;21.30;99.90;;;;;;5091373;28;20036;-76
2023/08/25 10:34:35;;;;;;;37.85;26.17;;;21.30;99.90;;;;;;5095738;28;20398;-76
2023/08/25 10:37:22;;;;;;;36.50;25.67;;;21.20;99.90;;;;;;5087337;28;20443;-76
2023/08/25 10:39:53;;;;;;;36.50;25.90;;;21.20;99.90;;;;;;5083128;28;20044;-77
2023/08/25 10:42:33;;;;;;;38.92;26.38;;;21.10;99.90;;;;;;5079940;28;20047;-77
2023/08/25 10:45:10;;;;;;;43.53;26.20;;;21.10;99.90;;;;;;5078496;28;20047;-77
2023/08/25 10:47:46;;;;;;;42.83;29.08;;;21.00;99.90;;;;;;5087636;28;20344;-77
2023/08/25 10:50:13;;;;;;;42.08;30.42;;;21.00;99.90;;;;;;5081456;28;20044;-77
2023/08/25 10:52:44;;;;;;;40.42;29.63;;;21.00;99.90;;;;;;5082935;28;20045;-77
2023/08/25 10:55:25;;;;;;;47.88;29.83;;;21.00;99.90;;;;;;5081531;28;20054;-77
2023/08/25 10:57:52;;;;;;;41.75;29.02;;;20.90;99.90;;;;;;5096200;28;20048;-77
2023/08/25 11:00:43;;;;;;;38.63;28.38;;;20.90;99.90;;;;;;5082666;28;20048;-77
2023/08/25 11:03:09;;;;;;;42.47;28.60;;;20.90;99.90;;;;;;5090453;28;20123;-78
2023/08/25 11:05:34;;;;;;;44.35;28.88;;;20.90;99.90;;;;;;5085112;28;20493;-77
2023/08/25 11:08:04;;;;;;;41.67;28.73;;;20.90;99.90;;;;;;5087058;28;20049;-77
2023/08/25 11:10:34;;;;;;;42.30;28.73;;;20.90;99.90;;;;;;5078667;28;20044;-77
2023/08/25 11:13:01;;;;;;;42.85;28.65;;;20.80;99.90;;;;;;5089611;28;20056;-77
2023/08/25 11:15:26;;;;;;;45.10;30.52;;;20.80;99.90;;;;;;5088419;28;20396;-76
2023/08/25 11:17:52;;;;;;;46.00;31.27;;;20.80;99.90;;;;;;5071664;28;20040;-76
2023/08/25 11:20:19;;;;;;;49.00;30.20;;;20.90;99.90;;;;;;5092354;28;20052;-76
2023/08/25 11:22:55;;;;;;;46.25;29.50;;;20.90;99.90;;;;;;5088896;28;20032;-75
2023/08/25 11:25:21;;;;;;;43.45;29.08;;;20.90;99.90;;;;;;5075422;28;20048;-76
2023/08/25 11:27:51;;;;;;;40.28;30.85;;;20.90;99.90;;;;;;5085875;28;20141;-76
2023/08/25 11:30:17;;;;;;;40.33;29.83;;;20.90;99.90;;;;;;5094703;28;20040;-76
2023/08/25 11:32:50;;;;;;;43.83;30.55;;;20.90;99.90;;;;;;5083445;28;20048;-76
2023/08/25 11:35:16;;;;;;;49.38;32.63;;;20.80;99.90;;;;;;5094318;28;20052;-74
2023/08/25 11:37:46;;;;;;;50.67;33.58;;;20.80;99.90;;;;;;5086116;28;20071;-74
2023/08/25 11:40:17;;;;;;;50.22;34.40;;;20.70;99.90;;;;;;5085715;28;20045;-75
2023/08/25 11:42:43;;;;;;;59.80;36.15;;;20.60;99.90;;;;;;5081418;28;20514;-77
2023/08/25 11:45:10;;;;;;;52.75;36.20;;;20.60;99.90;;;;;;5089950;28;20041;-76
2023/08/25 11:47:37;;;;;;;55.13;36.97;;;20.60;99.90;;;;;;5077820;28;20045;-77
2023/08/25 11:50:04;;;;;;;56.63;36.20;;;20.60;99.90;;;;;;5098591;28;20460;-78
2023/08/25 11:52:32;;;;;;;51.75;36.78;;;20.70;99.90;;;;;;5087991;28;20406;-78
2023/08/25 11:54:58;;;;;;;54.05;36.33;;;20.70;99.90;;;;;;5086763;28;20104;-77
2023/08/25 11:57:37;;;;;;;50.85;34.42;;;20.80;99.90;;;;;;5089657;28;20915;-77
2023/08/25 12:00:05;;;;;;;51.97;35.53;;;20.90;99.90;;;;;;5072231;28;20070;-77
2023/08/25 12:02:32;;;;;;;53.97;36.58;;;21.00;99.90;;;;;;5078345;28;20051;-77
2023/08/25 12:05:00;;;;;;;51.35;36.28;;;21.00;99.90;;;;;;5091137;28;20041;-77
2023/08/25 12:07:31;;;;;;;49.28;35.28;;;21.10;99.90;;;;;;5083592;28;20104;-76
2023/08/25 12:09:59;;;;;;;45.15;34.17;;;21.20;99.90;;;;;;5081190;28;20053;-76
2023/08/25 12:12:28;;;;;;;50.13;34.22;;;21.20;99.90;;;;;;5080256;28;20051;-77
2023/08/25 12:14:54;;;;;;;48.45;34.20;;;21.00;99.90;;;;;;5098677;28;20106;-77
2023/08/25 12:17:29;;;;;;;49.50;33.90;;;21.00;99.90;;;;;;5093674;28;20065;-76
2023/08/25 12:19:58;;;;;;;48.63;35.47;;;21.10;99.90;;;;;;5087904;28;20056;-77
2023/08/25 12:22:24;;;;;;;49.17;33.88;;;21.10;99.90;;;;;;5089344;28;20062;-76
2023/08/25 12:24:49;;;;;;;43.40;32.97;;;21.10;99.90;;;;;;5094932;28;20035;-77
2023/08/25 12:27:17;;;;;;;46.28;34.65;;;21.00;99.90;;;;;;5073808;28;20102;-77
2023/08/25 12:29:43;;;;;;;43.08;31.83;;;21.10;99.90;;;;;;5087159;28;20040;-77